Terminal Aerodrome Forecast
Issued by NWS

Home | Current Version | Previous Version | Graphics & Text | Print | Product List | Glossary On
Versions: 1 2 3 4 5 6 7 8 9 10 11 12 13 14 15 16 17 18 19 20 21 22 23 24 25 26 27 28 29 30 31
000
FTUS43 KDDC 050735 AAA
TAFHYS
TAF AMD
KHYS 050735Z 0508/0606 15007KT 3SM BR VCSH BKN004 BKN017 OVC070
     FM051000 10010KT 3SM BR BKN005
     FM051400 12012KT 4SM -SHRA OVC035=

USA.gov is the U.S. government's official web portal to all federal, state and local government web resources and services.